sensor_id;sensor_type;location;lat;lon;timestamp;P1;durP1;ratioP1;P2;durP2;ratioP2
68647;SDS011;55632;51.962;16.116;2023-05-07T00:02:43;10.82;;;7.10;;
68647;SDS011;55632;51.962;16.116;2023-05-07T00:07:44;9.52;;;7.28;;
68647;SDS011;55632;51.962;16.116;2023-05-07T00:12:45;11.27;;;7.32;;
68647;SDS011;55632;51.962;16.116;2023-05-07T00:17:46;11.65;;;7.32;;
68647;SDS011;55632;51.962;16.116;2023-05-07T00:22:46;16.17;;;7.88;;
68647;SDS011;55632;51.962;16.116;2023-05-07T00:27:47;11.75;;;7.28;;
68647;SDS011;55632;51.962;16.116;2023-05-07T00:32:48;10.07;;;7.90;;
68647;SDS011;55632;51.962;16.116;2023-05-07T00:37:51;11.10;;;7.68;;
68647;SDS011;55632;51.962;16.116;2023-05-07T00:42:52;11.70;;;7.93;;
68647;SDS011;55632;51.962;16.116;2023-05-07T00:48:00;11.52;;;7.13;;
68647;SDS011;55632;51.962;16.116;2023-05-07T00:53:02;13.63;;;8.10;;
68647;SDS011;55632;51.962;16.116;2023-05-07T00:58:04;11.80;;;7.45;;
68647;SDS011;55632;51.962;16.116;2023-05-07T01:03:06;9.10;;;6.60;;
68647;SDS011;55632;51.962;16.116;2023-05-07T01:08:07;13.10;;;7.15;;
68647;SDS011;55632;51.962;16.116;2023-05-07T01:13:09;11.00;;;7.70;;
68647;SDS011;55632;51.962;16.116;2023-05-07T01:18:11;8.63;;;6.50;;
68647;SDS011;55632;51.962;16.116;2023-05-07T01:23:11;11.18;;;6.93;;
68647;SDS011;55632;51.962;16.116;2023-05-07T01:28:13;9.73;;;6.72;;
68647;SDS011;55632;51.962;16.116;2023-05-07T01:33:17;7.55;;;5.82;;
68647;SDS011;55632;51.962;16.116;2023-05-07T01:38:21;13.27;;;7.35;;
68647;SDS011;55632;51.962;16.116;2023-05-07T01:43:23;9.43;;;6.05;;
68647;SDS011;55632;51.962;16.116;2023-05-07T01:48:24;9.93;;;7.00;;
68647;SDS011;55632;51.962;16.116;2023-05-07T01:53:27;11.90;;;6.55;;
68647;SDS011;55632;51.962;16.116;2023-05-07T01:58:28;9.35;;;6.55;;
68647;SDS011;55632;51.962;16.116;2023-05-07T02:03:29;10.57;;;6.50;;
68647;SDS011;55632;51.962;16.116;2023-05-07T02:08:39;13.60;;;6.95;;
68647;SDS011;55632;51.962;16.116;2023-05-07T02:13:41;9.70;;;6.40;;
68647;SDS011;55632;51.962;16.116;2023-05-07T02:18:41;10.05;;;6.45;;
68647;SDS011;55632;51.962;16.116;2023-05-07T02:23:42;8.15;;;5.90;;
68647;SDS011;55632;51.962;16.116;2023-05-07T02:28:43;8.70;;;6.18;;
68647;SDS011;55632;51.962;16.116;2023-05-07T02:33:44;9.98;;;6.07;;
68647;SDS011;55632;51.962;16.116;2023-05-07T02:38:46;8.98;;;5.97;;
68647;SDS011;55632;51.962;16.116;2023-05-07T02:43:47;11.23;;;6.80;;
68647;SDS011;55632;51.962;16.116;2023-05-07T02:48:51;9.32;;;6.40;;
68647;SDS011;55632;51.962;16.116;2023-05-07T02:53:54;9.82;;;6.28;;
68647;SDS011;55632;51.962;16.116;2023-05-07T02:58:56;13.07;;;6.40;;
68647;SDS011;55632;51.962;16.116;2023-05-07T03:04:00;8.45;;;5.68;;
68647;SDS011;55632;51.962;16.116;2023-05-07T03:09:01;11.10;;;6.38;;
68647;SDS011;55632;51.962;16.116;2023-05-07T03:14:03;13.90;;;5.88;;
68647;SDS011;55632;51.962;16.116;2023-05-07T03:19:04;12.68;;;6.53;;
68647;SDS011;55632;51.962;16.116;2023-05-07T03:24:05;9.95;;;6.10;;
68647;SDS011;55632;51.962;16.116;2023-05-07T03:29:06;6.70;;;5.22;;
68647;SDS011;55632;51.962;16.116;2023-05-07T03:34:07;10.18;;;6.72;;
68647;SDS011;55632;51.962;16.116;2023-05-07T03:39:07;8.82;;;6.05;;
68647;SDS011;55632;51.962;16.116;2023-05-07T03:44:13;8.90;;;5.97;;
68647;SDS011;55632;51.962;16.116;2023-05-07T03:49:14;9.93;;;5.85;;
68647;SDS011;55632;51.962;16.116;2023-05-07T03:54:15;7.85;;;5.25;;
68647;SDS011;55632;51.962;16.116;2023-05-07T03:59:19;8.93;;;5.82;;
68647;SDS011;55632;51.962;16.116;2023-05-07T04:04:21;8.85;;;5.43;;
68647;SDS011;55632;51.962;16.116;2023-05-07T04:09:22;8.93;;;5.18;;
68647;SDS011;55632;51.962;16.116;2023-05-07T04:14:23;8.85;;;5.22;;
68647;SDS011;55632;51.962;16.116;2023-05-07T04:19:24;7.28;;;5.03;;
68647;SDS011;55632;51.962;16.116;2023-05-07T04:24:31;7.28;;;5.70;;
68647;SDS011;55632;51.962;16.116;2023-05-07T04:29:35;17.92;;;7.90;;
68647;SDS011;55632;51.962;16.116;2023-05-07T04:34:36;19.17;;;9.00;;
68647;SDS011;55632;51.962;16.116;2023-05-07T04:39:37;16.75;;;10.05;;
68647;SDS011;55632;51.962;16.116;2023-05-07T04:44:41;16.27;;;12.13;;
68647;SDS011;55632;51.962;16.116;2023-05-07T04:49:42;43.55;;;28.80;;
68647;SDS011;55632;51.962;16.116;2023-05-07T04:54:48;63.17;;;41.35;;
68647;SDS011;55632;51.962;16.116;2023-05-07T04:59:50;22.27;;;15.70;;
68647;SDS011;55632;51.962;16.116;2023-05-07T05:04:51;10.90;;;8.20;;
68647;SDS011;55632;51.962;16.116;2023-05-07T05:09:52;13.82;;;8.98;;
68647;SDS011;55632;51.962;16.116;2023-05-07T05:14:54;14.02;;;11.30;;
68647;SDS011;55632;51.962;16.116;2023-05-07T05:19:55;11.75;;;8.00;;
68647;SDS011;55632;51.962;16.116;2023-05-07T05:24:57;11.65;;;8.68;;
68647;SDS011;55632;51.962;16.116;2023-05-07T05:29:58;10.40;;;7.13;;
68647;SDS011;55632;51.962;16.116;2023-05-07T05:34:59;15.40;;;11.35;;
68647;SDS011;55632;51.962;16.116;2023-05-07T05:40:00;14.02;;;9.35;;
68647;SDS011;55632;51.962;16.116;2023-05-07T05:45:04;18.75;;;12.70;;
68647;SDS011;55632;51.962;16.116;2023-05-07T05:50:07;16.52;;;10.75;;
68647;SDS011;55632;51.962;16.116;2023-05-07T05:55:11;16.88;;;12.10;;
68647;SDS011;55632;51.962;16.116;2023-05-07T06:00:12;25.85;;;18.45;;
68647;SDS011;55632;51.962;16.116;2023-05-07T06:05:19;8.15;;;5.20;;
68647;SDS011;55632;51.962;16.116;2023-05-07T06:10:24;7.13;;;4.65;;
68647;SDS011;55632;51.962;16.116;2023-05-07T06:15:28;5.93;;;4.40;;
68647;SDS011;55632;51.962;16.116;2023-05-07T06:20:31;6.85;;;4.78;;
68647;SDS011;55632;51.962;16.116;2023-05-07T06:25:34;6.90;;;5.63;;
68647;SDS011;55632;51.962;16.116;2023-05-07T06:30:38;6.63;;;4.93;;
68647;SDS011;55632;51.962;16.116;2023-05-07T06:35:40;8.18;;;5.72;;
68647;SDS011;55632;51.962;16.116;2023-05-07T06:40:41;16.50;;;11.35;;
68647;SDS011;55632;51.962;16.116;2023-05-07T06:45:42;19.70;;;14.98;;
68647;SDS011;55632;51.962;16.116;2023-05-07T06:50:44;19.10;;;13.52;;
68647;SDS011;55632;51.962;16.116;2023-05-07T06:55:46;13.48;;;10.18;;
68647;SDS011;55632;51.962;16.116;2023-05-07T07:00:48;14.40;;;11.43;;
68647;SDS011;55632;51.962;16.116;2023-05-07T07:05:52;17.40;;;11.35;;
68647;SDS011;55632;51.962;16.116;2023-05-07T07:10:53;15.60;;;11.82;;
68647;SDS011;55632;51.962;16.116;2023-05-07T07:15:56;11.40;;;8.25;;
68647;SDS011;55632;51.962;16.116;2023-05-07T07:20:57;8.90;;;6.40;;
68647;SDS011;55632;51.962;16.116;2023-05-07T07:25:58;5.30;;;3.72;;
68647;SDS011;55632;51.962;16.116;2023-05-07T07:31:00;5.93;;;3.78;;
68647;SDS011;55632;51.962;16.116;2023-05-07T07:36:01;7.18;;;5.15;;
68647;SDS011;55632;51.962;16.116;2023-05-07T07:41:02;9.70;;;6.90;;
68647;SDS011;55632;51.962;16.116;2023-05-07T07:46:04;8.32;;;4.80;;
68647;SDS011;55632;51.962;16.116;2023-05-07T07:51:06;8.30;;;5.18;;
68647;SDS011;55632;51.962;16.116;2023-05-07T07:56:07;3.83;;;3.33;;
68647;SDS011;55632;51.962;16.116;2023-05-07T08:01:09;3.17;;;2.88;;
68647;SDS011;55632;51.962;16.116;2023-05-07T08:06:10;4.32;;;2.33;;
68647;SDS011;55632;51.962;16.116;2023-05-07T08:11:11;4.13;;;2.80;;
68647;SDS011;55632;51.962;16.116;2023-05-07T08:16:12;5.10;;;2.38;;
68647;SDS011;55632;51.962;16.116;2023-05-07T08:21:14;15.38;;;6.28;;
68647;SDS011;55632;51.962;16.116;2023-05-07T08:26:15;3.40;;;2.78;;
68647;SDS011;55632;51.962;16.116;2023-05-07T08:31:17;2.20;;;2.00;;
68647;SDS011;55632;51.962;16.116;2023-05-07T08:36:19;3.85;;;2.33;;
68647;SDS011;55632;51.962;16.116;2023-05-07T08:41:20;3.30;;;2.47;;
68647;SDS011;55632;51.962;16.116;2023-05-07T08:46:22;3.60;;;2.78;;
68647;SDS011;55632;51.962;16.116;2023-05-07T08:51:39;3.35;;;2.33;;
68647;SDS011;55632;51.962;16.116;2023-05-07T08:56:42;2.47;;;1.98;;
68647;SDS011;55632;51.962;16.116;2023-05-07T09:01:43;3.45;;;2.30;;
68647;SDS011;55632;51.962;16.116;2023-05-07T09:06:45;2.30;;;2.08;;
68647;SDS011;55632;51.962;16.116;2023-05-07T09:11:52;2.25;;;1.90;;
68647;SDS011;55632;51.962;16.116;2023-05-07T09:16:59;1.90;;;1.80;;
68647;SDS011;55632;51.962;16.116;2023-05-07T09:22:02;2.65;;;2.05;;
68647;SDS011;55632;51.962;16.116;2023-05-07T09:27:12;3.20;;;2.13;;
68647;SDS011;55632;51.962;16.116;2023-05-07T09:32:17;3.03;;;1.90;;
68647;SDS011;55632;51.962;16.116;2023-05-07T09:37:18;4.65;;;2.60;;
68647;SDS011;55632;51.962;16.116;2023-05-07T09:42:24;3.90;;;2.60;;
68647;SDS011;55632;51.962;16.116;2023-05-07T09:47:28;3.67;;;2.58;;
68647;SDS011;55632;51.962;16.116;2023-05-07T09:52:36;1.90;;;1.70;;
68647;SDS011;55632;51.962;16.116;2023-05-07T09:57:40;7.25;;;3.75;;
68647;SDS011;55632;51.962;16.116;2023-05-07T10:02:43;3.58;;;2.60;;
68647;SDS011;55632;51.962;16.116;2023-05-07T10:07:48;4.47;;;2.60;;
68647;SDS011;55632;51.962;16.116;2023-05-07T10:12:57;3.10;;;2.10;;
68647;SDS011;55632;51.962;16.116;2023-05-07T10:18:04;2.33;;;1.90;;
68647;SDS011;55632;51.962;16.116;2023-05-07T10:23:07;4.40;;;2.72;;
68647;SDS011;55632;51.962;16.116;2023-05-07T10:28:16;2.67;;;2.00;;
68647;SDS011;55632;51.962;16.116;2023-05-07T10:33:26;3.95;;;2.70;;
68647;SDS011;55632;51.962;16.116;2023-05-07T10:38:30;4.25;;;3.10;;
68647;SDS011;55632;51.962;16.116;2023-05-07T10:43:40;3.40;;;2.22;;
68647;SDS011;55632;51.962;16.116;2023-05-07T11:04:33;7.95;;;3.80;;
68647;SDS011;55632;51.962;16.116;2023-05-07T11:10:03;4.65;;;3.25;;
68647;SDS011;55632;51.962;16.116;2023-05-07T11:15:34;5.13;;;3.60;;
68647;SDS011;55632;51.962;16.116;2023-05-07T11:26:14;6.22;;;3.90;;
68647;SDS011;55632;51.962;16.116;2023-05-07T11:31:23;5.30;;;2.60;;
68647;SDS011;55632;51.962;16.116;2023-05-07T11:36:30;3.42;;;1.40;;
68647;SDS011;55632;51.962;16.116;2023-05-07T11:41:35;2.10;;;1.60;;
68647;SDS011;55632;51.962;16.116;2023-05-07T11:46:42;1.60;;;1.50;;
68647;SDS011;55632;51.962;16.116;2023-05-07T11:51:44;2.42;;;1.98;;
68647;SDS011;55632;51.962;16.116;2023-05-07T11:56:46;3.38;;;1.80;;
68647;SDS011;55632;51.962;16.116;2023-05-07T12:01:47;13.05;;;7.35;;
68647;SDS011;55632;51.962;16.116;2023-05-07T12:06:48;4.05;;;2.35;;
68647;SDS011;55632;51.962;16.116;2023-05-07T12:11:51;6.82;;;4.28;;
68647;SDS011;55632;51.962;16.116;2023-05-07T12:16:53;4.07;;;2.60;;
68647;SDS011;55632;51.962;16.116;2023-05-07T12:21:54;2.10;;;1.80;;
68647;SDS011;55632;51.962;16.116;2023-05-07T12:26:55;5.40;;;3.50;;
68647;SDS011;55632;51.962;16.116;2023-05-07T12:31:55;7.07;;;6.00;;
68647;SDS011;55632;51.962;16.116;2023-05-07T12:36:56;4.65;;;3.50;;
68647;SDS011;55632;51.962;16.116;2023-05-07T12:41:58;4.43;;;2.30;;
68647;SDS011;55632;51.962;16.116;2023-05-07T12:47:03;5.10;;;4.28;;
68647;SDS011;55632;51.962;16.116;2023-05-07T12:52:05;2.30;;;1.95;;
68647;SDS011;55632;51.962;16.116;2023-05-07T12:57:07;3.60;;;2.15;;
68647;SDS011;55632;51.962;16.116;2023-05-07T13:02:09;6.72;;;2.60;;
68647;SDS011;55632;51.962;16.116;2023-05-07T13:07:11;7.72;;;3.75;;
68647;SDS011;55632;51.962;16.116;2023-05-07T13:12:12;3.78;;;2.30;;
68647;SDS011;55632;51.962;16.116;2023-05-07T13:17:15;15.20;;;4.10;;
68647;SDS011;55632;51.962;16.116;2023-05-07T13:22:16;5.32;;;2.75;;
68647;SDS011;55632;51.962;16.116;2023-05-07T13:27:17;9.77;;;4.57;;
68647;SDS011;55632;51.962;16.116;2023-05-07T13:32:19;11.02;;;5.05;;
68647;SDS011;55632;51.962;16.116;2023-05-07T13:37:20;3.40;;;2.63;;
68647;SDS011;55632;51.962;16.116;2023-05-07T13:42:21;8.20;;;3.78;;
68647;SDS011;55632;51.962;16.116;2023-05-07T13:47:22;3.15;;;2.08;;
68647;SDS011;55632;51.962;16.116;2023-05-07T13:52:23;4.68;;;2.50;;
68647;SDS011;55632;51.962;16.116;2023-05-07T13:57:24;2.10;;;1.85;;
68647;SDS011;55632;51.962;16.116;2023-05-07T14:02:25;4.38;;;2.67;;
68647;SDS011;55632;51.962;16.116;2023-05-07T14:07:26;7.55;;;4.13;;
68647;SDS011;55632;51.962;16.116;2023-05-07T14:12:27;4.45;;;2.13;;
68647;SDS011;55632;51.962;16.116;2023-05-07T14:17:27;15.63;;;5.95;;
68647;SDS011;55632;51.962;16.116;2023-05-07T14:22:32;16.20;;;7.82;;
68647;SDS011;55632;51.962;16.116;2023-05-07T14:27:33;8.23;;;4.30;;
68647;SDS011;55632;51.962;16.116;2023-05-07T14:32:33;28.77;;;13.80;;
68647;SDS011;55632;51.962;16.116;2023-05-07T14:37:34;16.75;;;8.57;;
68647;SDS011;55632;51.962;16.116;2023-05-07T14:42:38;11.45;;;6.60;;
68647;SDS011;55632;51.962;16.116;2023-05-07T14:47:39;14.60;;;6.05;;
68647;SDS011;55632;51.962;16.116;2023-05-07T14:52:44;13.27;;;4.60;;
68647;SDS011;55632;51.962;16.116;2023-05-07T14:57:45;10.70;;;4.90;;
68647;SDS011;55632;51.962;16.116;2023-05-07T15:02:46;17.77;;;7.78;;
68647;SDS011;55632;51.962;16.116;2023-05-07T15:07:47;7.45;;;4.18;;
68647;SDS011;55632;51.962;16.116;2023-05-07T15:12:48;5.97;;;4.13;;
68647;SDS011;55632;51.962;16.116;2023-05-07T15:17:48;9.48;;;3.78;;
68647;SDS011;55632;51.962;16.116;2023-05-07T15:22:49;4.00;;;2.80;;
68647;SDS011;55632;51.962;16.116;2023-05-07T15:27:50;4.97;;;3.40;;
68647;SDS011;55632;51.962;16.116;2023-05-07T15:32:54;5.03;;;3.33;;
68647;SDS011;55632;51.962;16.116;2023-05-07T15:37:55;4.57;;;3.10;;
68647;SDS011;55632;51.962;16.116;2023-05-07T15:42:56;11.48;;;8.23;;
68647;SDS011;55632;51.962;16.116;2023-05-07T15:47:57;4.32;;;2.50;;
68647;SDS011;55632;51.962;16.116;2023-05-07T15:53:01;12.88;;;8.15;;
68647;SDS011;55632;51.962;16.116;2023-05-07T15:58:03;5.07;;;2.65;;
68647;SDS011;55632;51.962;16.116;2023-05-07T16:03:06;3.88;;;2.90;;
68647;SDS011;55632;51.962;16.116;2023-05-07T16:08:07;6.07;;;3.80;;
68647;SDS011;55632;51.962;16.116;2023-05-07T16:13:08;4.40;;;2.42;;
68647;SDS011;55632;51.962;16.116;2023-05-07T16:18:12;6.18;;;3.65;;
68647;SDS011;55632;51.962;16.116;2023-05-07T16:23:20;14.27;;;7.25;;
68647;SDS011;55632;51.962;16.116;2023-05-07T16:28:22;14.95;;;7.95;;
68647;SDS011;55632;51.962;16.116;2023-05-07T16:33:23;7.82;;;2.88;;
68647;SDS011;55632;51.962;16.116;2023-05-07T16:38:26;4.15;;;2.53;;
68647;SDS011;55632;51.962;16.116;2023-05-07T16:43:32;3.97;;;2.78;;
68647;SDS011;55632;51.962;16.116;2023-05-07T16:48:33;4.80;;;3.25;;
68647;SDS011;55632;51.962;16.116;2023-05-07T16:53:34;5.65;;;3.42;;
68647;SDS011;55632;51.962;16.116;2023-05-07T16:58:41;8.45;;;4.10;;
68647;SDS011;55632;51.962;16.116;2023-05-07T17:03:44;8.45;;;4.03;;
68647;SDS011;55632;51.962;16.116;2023-05-07T17:08:48;7.32;;;4.15;;
68647;SDS011;55632;51.962;16.116;2023-05-07T17:13:54;3.63;;;2.60;;
68647;SDS011;55632;51.962;16.116;2023-05-07T17:18:58;3.33;;;2.30;;
68647;SDS011;55632;51.962;16.116;2023-05-07T17:23:59;40.85;;;17.40;;
68647;SDS011;55632;51.962;16.116;2023-05-07T17:29:03;20.02;;;9.48;;
68647;SDS011;55632;51.962;16.116;2023-05-07T17:34:04;3.72;;;2.80;;
68647;SDS011;55632;51.962;16.116;2023-05-07T17:39:05;25.45;;;10.27;;
68647;SDS011;55632;51.962;16.116;2023-05-07T17:44:06;41.50;;;12.48;;
68647;SDS011;55632;51.962;16.116;2023-05-07T17:49:10;6.82;;;3.50;;
68647;SDS011;55632;51.962;16.116;2023-05-07T17:54:11;9.82;;;5.63;;
68647;SDS011;55632;51.962;16.116;2023-05-07T17:59:11;33.45;;;13.70;;
68647;SDS011;55632;51.962;16.116;2023-05-07T18:04:12;37.97;;;23.05;;
68647;SDS011;55632;51.962;16.116;2023-05-07T18:09:13;36.00;;;13.80;;
68647;SDS011;55632;51.962;16.116;2023-05-07T18:14:14;61.33;;;19.05;;
68647;SDS011;55632;51.962;16.116;2023-05-07T18:19:15;48.00;;;27.38;;
68647;SDS011;55632;51.962;16.116;2023-05-07T18:24:17;28.35;;;14.98;;
68647;SDS011;55632;51.962;16.116;2023-05-07T18:29:19;12.35;;;6.22;;
68647;SDS011;55632;51.962;16.116;2023-05-07T18:34:20;14.43;;;7.97;;
68647;SDS011;55632;51.962;16.116;2023-05-07T18:39:21;12.80;;;6.43;;
68647;SDS011;55632;51.962;16.116;2023-05-07T18:44:21;14.65;;;8.32;;
68647;SDS011;55632;51.962;16.116;2023-05-07T18:49:26;21.27;;;11.18;;
68647;SDS011;55632;51.962;16.116;2023-05-07T18:54:27;16.90;;;10.57;;
68647;SDS011;55632;51.962;16.116;2023-05-07T18:59:29;12.45;;;7.95;;
68647;SDS011;55632;51.962;16.116;2023-05-07T19:04:30;12.50;;;5.88;;
68647;SDS011;55632;51.962;16.116;2023-05-07T19:09:31;9.35;;;6.15;;
68647;SDS011;55632;51.962;16.116;2023-05-07T19:14:36;26.00;;;18.70;;
68647;SDS011;55632;51.962;16.116;2023-05-07T19:19:43;18.45;;;10.40;;
68647;SDS011;55632;51.962;16.116;2023-05-07T19:24:50;13.32;;;8.02;;
68647;SDS011;55632;51.962;16.116;2023-05-07T19:29:51;19.45;;;11.73;;
68647;SDS011;55632;51.962;16.116;2023-05-07T19:34:52;18.98;;;16.98;;
68647;SDS011;55632;51.962;16.116;2023-05-07T19:39:53;9.90;;;6.45;;
68647;SDS011;55632;51.962;16.116;2023-05-07T19:44:54;19.33;;;11.63;;
68647;SDS011;55632;51.962;16.116;2023-05-07T19:49:55;17.67;;;8.15;;
68647;SDS011;55632;51.962;16.116;2023-05-07T19:54:56;19.88;;;11.10;;
68647;SDS011;55632;51.962;16.116;2023-05-07T19:59:58;24.98;;;13.82;;
68647;SDS011;55632;51.962;16.116;2023-05-07T20:04:59;22.00;;;12.40;;
68647;SDS011;55632;51.962;16.116;2023-05-07T20:10:03;14.38;;;7.80;;
68647;SDS011;55632;51.962;16.116;2023-05-07T20:15:04;15.00;;;8.23;;
68647;SDS011;55632;51.962;16.116;2023-05-07T20:20:05;27.42;;;11.32;;
68647;SDS011;55632;51.962;16.116;2023-05-07T20:25:08;21.48;;;10.95;;
68647;SDS011;55632;51.962;16.116;2023-05-07T20:30:10;29.60;;;14.50;;
68647;SDS011;55632;51.962;16.116;2023-05-07T20:35:11;24.38;;;13.35;;
68647;SDS011;55632;51.962;16.116;2023-05-07T20:40:15;27.80;;;13.27;;
68647;SDS011;55632;51.962;16.116;2023-05-07T20:45:19;27.92;;;11.00;;
68647;SDS011;55632;51.962;16.116;2023-05-07T20:50:26;22.65;;;9.57;;
68647;SDS011;55632;51.962;16.116;2023-05-07T20:55:27;13.00;;;6.43;;
68647;SDS011;55632;51.962;16.116;2023-05-07T21:00:27;10.50;;;5.55;;
68647;SDS011;55632;51.962;16.116;2023-05-07T21:05:29;11.88;;;6.15;;
68647;SDS011;55632;51.962;16.116;2023-05-07T21:10:31;8.38;;;5.15;;
68647;SDS011;55632;51.962;16.116;2023-05-07T21:15:35;8.43;;;5.07;;
68647;SDS011;55632;51.962;16.116;2023-05-07T21:20:36;10.27;;;5.40;;
68647;SDS011;55632;51.962;16.116;2023-05-07T21:25:36;9.20;;;4.85;;
68647;SDS011;55632;51.962;16.116;2023-05-07T21:30:40;6.15;;;4.53;;
68647;SDS011;55632;51.962;16.116;2023-05-07T21:35:41;6.15;;;4.25;;
68647;SDS011;55632;51.962;16.116;2023-05-07T21:40:42;11.27;;;4.78;;
68647;SDS011;55632;51.962;16.116;2023-05-07T21:45:42;6.15;;;4.32;;
68647;SDS011;55632;51.962;16.116;2023-05-07T21:50:43;7.88;;;4.28;;
68647;SDS011;55632;51.962;16.116;2023-05-07T21:55:44;7.35;;;4.63;;
68647;SDS011;55632;51.962;16.116;2023-05-07T22:00:48;6.63;;;4.50;;
68647;SDS011;55632;51.962;16.116;2023-05-07T22:05:49;6.32;;;4.55;;
68647;SDS011;55632;51.962;16.116;2023-05-07T22:10:50;6.20;;;4.00;;
68647;SDS011;55632;51.962;16.116;2023-05-07T22:15:51;6.35;;;4.30;;
68647;SDS011;55632;51.962;16.116;2023-05-07T22:20:53;8.73;;;4.00;;
68647;SDS011;55632;51.962;16.116;2023-05-07T22:25:54;5.18;;;3.90;;
68647;SDS011;55632;51.962;16.116;2023-05-07T22:30:55;5.63;;;3.78;;
68647;SDS011;55632;51.962;16.116;2023-05-07T22:35:55;5.43;;;3.60;;
68647;SDS011;55632;51.962;16.116;2023-05-07T22:40:57;6.03;;;3.42;;
68647;SDS011;55632;51.962;16.116;2023-05-07T22:45:58;5.70;;;3.92;;
68647;SDS011;55632;51.962;16.116;2023-05-07T22:51:00;4.82;;;3.35;;
68647;SDS011;55632;51.962;16.116;2023-05-07T22:56:02;4.63;;;3.53;;
68647;SDS011;55632;51.962;16.116;2023-05-07T23:01:15;6.95;;;3.42;;
68647;SDS011;55632;51.962;16.116;2023-05-07T23:06:17;10.40;;;5.63;;
68647;SDS011;55632;51.962;16.116;2023-05-07T23:11:18;24.85;;;8.82;;
68647;SDS011;55632;51.962;16.116;2023-05-07T23:16:19;42.97;;;12.27;;
68647;SDS011;55632;51.962;16.116;2023-05-07T23:21:20;11.68;;;5.03;;
68647;SDS011;55632;51.962;16.116;2023-05-07T23:26:21;24.13;;;8.13;;
68647;SDS011;55632;51.962;16.116;2023-05-07T23:31:22;6.82;;;3.47;;
68647;SDS011;55632;51.962;16.116;2023-05-07T23:36:23;10.40;;;5.22;;
68647;SDS011;55632;51.962;16.116;2023-05-07T23:41:24;10.57;;;4.78;;
68647;SDS011;55632;51.962;16.116;2023-05-07T23:46:25;7.35;;;3.78;;
68647;SDS011;55632;51.962;16.116;2023-05-07T23:51:26;10.68;;;5.38;;
68647;SDS011;55632;51.962;16.116;2023-05-07T23:56:26;11.95;;;4.90;;
